^^

..:: Storico WU ::..




Lo storico viene creato da WUnderground con i dati che la stazione Meteomincio invia al loro server. L' aggiornamento viene fatto ogni 5 minuti circa, tuttavia possono esserci intervalli pi¨ ampi a causa di errori, interruzioni di servizio o problemi nell' invio tramite FTP.


Storico stazione MeteoMincio
Giorno Sommario per Febbario 12, 2022 Unità:  Metrico    Inglese   Entrambi
Giorno Settimana Mese Anno
  Max: Min: Media:
Temperatura: 12.3 °C 1.1 °C 6.2 °C
Dew Point: 3.7 °C -4.2 °C -0.3 °C
Umidità: 94% 32.2% 68%
Velocità vento: 18.5km/h 0km/h 5.8km/h
Raffica: 32.2km/h - -
Direzione- - East
Pressione: 1033.2 hPa 1027.7 hPa -
Precipitazioni: 0.0 mm    
 
 
Tabulato Dati per Febbario 12, 2022
Ora Temperatura Dew Point Pressione Direzione Velocità vento Raffica Umidità Intensità pioggia (oraria) Info solare Situazione
00:04 4.4 °C 2.9 °C 1027.7 hPa NE 0.6 km/h 3.7 km/h 90% 0.0 mm 0 W/m2
00:09 4.3 °C 2.8 °C 1027.8 hPa NE 1.6 km/h 3.7 km/h 90% 0.0 mm 0 W/m2
00:14 4.2 °C 2.7 °C 1027.8 hPa NE 2.1 km/h 3.7 km/h 90% 0.0 mm 0 W/m2
00:19 4.2 °C 2.7 °C 1027.8 hPa NE 2.3 km/h 3.7 km/h 90% 0.0 mm 0 W/m2
00:24 4.1 °C 2.6 °C 1027.9 hPa NE 2.6 km/h 3.7 km/h 90% 0.0 mm 0 W/m2
00:29 4 °C 2.6 °C 1027.9 hPa NE 2.4 km/h 3.7 km/h 90.3% 0.0 mm 0 W/m2
00:34 4 °C 2.6 °C 1028.0 hPa NE 3.1 km/h 5.6 km/h 91% 0.0 mm 0 W/m2
00:39 4 °C 2.6 °C 1028.0 hPa NE 3 km/h 5.6 km/h 91% 0.0 mm 0 W/m2
00:44 3.9 °C 2.6 °C 1028.1 hPa NE 3.3 km/h 5.6 km/h 91% 0.0 mm 0 W/m2
00:49 3.8 °C 2.5 °C 1028.1 hPa NE 3.7 km/h 5.6 km/h 91% 0.0 mm 0 W/m2
00:54 3.8 °C 2.5 °C 1028.2 hPa NE 3.6 km/h 5.6 km/h 91% 0.0 mm 0 W/m2
00:59 3.8 °C 2.5 °C 1028.2 hPa NE 2.7 km/h 5.6 km/h 90.8% 0.0 mm 0 W/m2
01:04 3.7 °C 2.4 °C 1028.2 hPa NE 1.6 km/h 4.8 km/h 91% 0.0 mm 0 W/m2
01:09 3.6 °C 2.3 °C 1028.2 hPa NE 3.1 km/h 5.6 km/h 91% 0.0 mm 0 W/m2
01:14 3.9 °C 2.5 °C 1028.2 hPa NE 3.2 km/h 5.6 km/h 91% 0.0 mm 0 W/m2
01:19 4 °C 2.5 °C 1028.2 hPa NE 2.5 km/h 5.6 km/h 90.2% 0.0 mm 0 W/m2
01:24 3.5 °C 2.1 °C 1028.4 hPa ENE 2.2 km/h 5.6 km/h 90.3% 0.0 mm 0 W/m2
01:29 3.5 °C 2.2 °C 1028.5 hPa East 3.9 km/h 5.6 km/h 91% 0.0 mm 0 W/m2
01:34 3.3 °C 2 °C 1028.6 hPa NE 2.9 km/h 5.6 km/h 91.2% 0.0 mm 0 W/m2
01:39 3.1 °C 2 °C 1028.8 hPa NE 2.9 km/h 5.6 km/h 92% 0.0 mm 0 W/m2
01:44 3.3 °C 2.3 °C 1028.8 hPa NE 2.9 km/h 5.6 km/h 92.8% 0.0 mm 0 W/m2
01:49 3.4 °C 2.2 °C 1028.9 hPa NNE 2.4 km/h 4.8 km/h 92% 0.0 mm 0 W/m2
01:54 3.4 °C 2.3 °C 1029.0 hPa NE 3.3 km/h 5.6 km/h 92.4% 0.0 mm 0 W/m2
01:59 3.5 °C 2.4 °C 1029.1 hPa ENE 4.6 km/h 6.4 km/h 92.2% 0.0 mm 0 W/m2
02:04 3.8 °C 2.7 °C 1029.2 hPa ENE 6.8 km/h 11.3 km/h 92% 0.0 mm 0 W/m2
02:09 4.2 °C 2.9 °C 1029.2 hPa ENE 8 km/h 13 km/h 91.3% 0.0 mm 0 W/m2
02:14 4.5 °C 3 °C 1029.3 hPa ENE 7.8 km/h 12.9 km/h 89.9% 0.0 mm 0 W/m2
02:19 4.6 °C 3 °C 1029.4 hPa ENE 7.4 km/h 11.3 km/h 89% 0.0 mm 0 W/m2
02:24 4.5 °C 2.7 °C 1029.6 hPa ENE 6.3 km/h 11.3 km/h 88.2% 0.0 mm 0 W/m2
02:29 4.4 °C 2.7 °C 1029.7 hPa ENE 6.2 km/h 11.3 km/h 88.6% 0.0 mm 0 W/m2
02:34 4.3 °C 2.4 °C 1029.7 hPa ENE 7.8 km/h 13 km/h 88% 0.0 mm 0 W/m2
02:39 4.3 °C 2.5 °C 1029.7 hPa ENE 9 km/h 14.8 km/h 88% 0.0 mm 0 W/m2
02:44 4.4 °C 2.5 °C 1029.7 hPa ENE 8.1 km/h 14.5 km/h 88% 0.0 mm 0 W/m2
02:49 4.3 °C 2.5 °C 1029.7 hPa ENE 8 km/h 13 km/h 88% 0.0 mm 0 W/m2
02:54 4.2 °C 2.3 °C 1029.8 hPa ENE 6.4 km/h 12.9 km/h 88% 0.0 mm 0 W/m2
02:59 4.1 °C 2.2 °C 1029.8 hPa ENE 6.2 km/h 11.3 km/h 88% 0.0 mm 0 W/m2
03:04 3.9 °C 2.2 °C 1029.8 hPa ENE 5.8 km/h 11.3 km/h 88.9% 0.0 mm 0 W/m2
03:09 3.9 °C 2.2 °C 1029.8 hPa ENE 4.6 km/h 9.7 km/h 89% 0.0 mm 0 W/m2
03:14 3.8 °C 2.2 °C 1029.9 hPa ENE 5.3 km/h 8 km/h 89.7% 0.0 mm 0 W/m2
03:19 3.7 °C 2.2 °C 1029.9 hPa ENE 4.7 km/h 8 km/h 90% 0.0 mm 0 W/m2
03:24 3.7 °C 2.2 °C 1030.0 hPa ENE 5.8 km/h 11.3 km/h 90% 0.0 mm 0 W/m2
03:29 3.8 °C 2.3 °C 1030.1 hPa ENE 6.8 km/h 11.3 km/h 90% 0.0 mm 0 W/m2
03:34 3.8 °C 2.3 °C 1030.2 hPa ENE 7.2 km/h 11.3 km/h 90% 0.0 mm 0 W/m2
03:39 3.8 °C 2.3 °C 1030.2 hPa ENE 7.6 km/h 12.9 km/h 90% 0.0 mm 0 W/m2
03:44 3.9 °C 2.4 °C 1030.3 hPa ENE 7 km/h 13 km/h 90% 0.0 mm 0 W/m2
03:49 3.8 °C 2.3 °C 1030.4 hPa ENE 6.3 km/h 12.9 km/h 90% 0.0 mm 0 W/m2
03:54 3.8 °C 2.3 °C 1030.4 hPa ENE 6.6 km/h 11.3 km/h 90% 0.0 mm 0 W/m2
03:59 3.7 °C 2.3 °C 1030.5 hPa ENE 7.4 km/h 11.3 km/h 90.6% 0.0 mm 0 W/m2
04:04 3.6 °C 2.3 °C 1030.5 hPa ENE 6.9 km/h 13 km/h 91% 0.0 mm 0 W/m2
04:09 3.5 °C 2.2 °C 1030.5 hPa East 6.7 km/h 13 km/h 91% 0.0 mm 0 W/m2
04:14 3.6 °C 2.2 °C 1030.6 hPa East 7.8 km/h 14.5 km/h 91% 0.0 mm 0 W/m2
04:19 3.8 °C 2.4 °C 1030.7 hPa East 10.6 km/h 18.5 km/h 91% 0.0 mm 0 W/m2
04:24 3.9 °C 2.6 °C 1030.7 hPa East 11.2 km/h 19.3 km/h 91% 0.0 mm 0 W/m2
04:29 4 °C 2.7 °C 1030.7 hPa East 10.6 km/h 16.1 km/h 91% 0.0 mm 0 W/m2
04:34 4.1 °C 2.8 °C 1030.8 hPa East 8.5 km/h 14.5 km/h 91% 0.0 mm 0 W/m2
04:39 4.1 °C 2.7 °C 1030.8 hPa East 7.4 km/h 13 km/h 90.5% 0.0 mm 0 W/m2
04:44 4.1 °C 2.7 °C 1030.8 hPa East 6.5 km/h 12.9 km/h 90.8% 0.0 mm 0 W/m2
04:49 4 °C 2.7 °C 1030.8 hPa East 7.7 km/h 11.3 km/h 91% 0.0 mm 0 W/m2
04:54 4 °C 2.7 °C 1030.8 hPa East 7.1 km/h 11.3 km/h 91% 0.0 mm 0 W/m2
04:59 3.9 °C 2.6 °C 1030.8 hPa East 7 km/h 11.3 km/h 91% 0.0 mm 0 W/m2
05:04 3.9 °C 2.6 °C 1030.9 hPa ENE 5.7 km/h 11.3 km/h 91% 0.0 mm 0 W/m2
05:09 3.9 °C 2.5 °C 1031.0 hPa ENE 6.1 km/h 9.7 km/h 91% 0.0 mm 0 W/m2
05:14 3.8 °C 2.5 °C 1031.0 hPa ENE 6.7 km/h 11.3 km/h 91% 0.0 mm 0 W/m2
05:19 3.8 °C 2.5 °C 1031.0 hPa ENE 5.8 km/h 11.3 km/h 91% 0.0 mm 0 W/m2
05:24 3.8 °C 2.5 °C 1031.0 hPa ENE 5.9 km/h 8 km/h 91% 0.0 mm 0 W/m2
05:29 3.7 °C 2.4 °C 1031.0 hPa ENE 4.6 km/h 8 km/h 91% 0.0 mm 0 W/m2
05:34 3.6 °C 2.3 °C 1031.0 hPa ENE 4.7 km/h 8 km/h 91% 0.0 mm 0 W/m2
05:39 3.5 °C 2.2 °C 1031.0 hPa ENE 4.2 km/h 8 km/h 91% 0.0 mm 0 W/m2
05:44 3.4 °C 2.1 °C 1031.1 hPa ENE 4.1 km/h 8 km/h 91.4% 0.0 mm 0 W/m2
05:49 3.3 °C 2.2 °C 1031.1 hPa ENE 4.3 km/h 8 km/h 91.9% 0.0 mm 0 W/m2
05:54 3.3 °C 2.2 °C 1031.1 hPa NE 3.9 km/h 6.4 km/h 92% 0.0 mm 0 W/m2
05:59 3.2 °C 2 °C 1031.1 hPa NE 4.3 km/h 6.4 km/h 92% 0.0 mm 0 W/m2
06:04 3 °C 1.9 °C 1031.2 hPa NE 4.4 km/h 6.4 km/h 92% 0.0 mm 0 W/m2
06:09 2.9 °C 1.8 °C 1031.2 hPa NE 4.1 km/h 6.4 km/h 92% 0.0 mm 0 W/m2
06:14 2.9 °C 1.8 °C 1031.2 hPa NE 3.9 km/h 6.4 km/h 92% 0.0 mm 0 W/m2
06:19 2.8 °C 1.7 °C 1031.1 hPa NE 4.1 km/h 6.4 km/h 92.1% 0.0 mm 0 W/m2
06:24 2.9 °C 1.8 °C 1031.1 hPa ENE 3 km/h 6.4 km/h 92.3% 0.0 mm 0 W/m2
06:29 2.9 °C 1.8 °C 1031.2 hPa ENE 3.9 km/h 6.4 km/h 92% 0.0 mm 0 W/m2
06:34 2.7 °C 1.6 °C 1031.2 hPa NE 4 km/h 6.4 km/h 92% 0.0 mm 0 W/m2
06:39 2.6 °C 1.4 °C 1031.2 hPa NE 3.7 km/h 6.4 km/h 92% 0.0 mm 0 W/m2
06:44 2.5 °C 1.4 °C 1031.2 hPa NE 3.6 km/h 5.6 km/h 92% 0.0 mm 0 W/m2
06:49 2.4 °C 1.2 °C 1031.3 hPa NE 3.4 km/h 5.6 km/h 92% 0.0 mm 0 W/m2
06:54 2.3 °C 1.1 °C 1031.3 hPa NE 3.9 km/h 5.6 km/h 92% 0.0 mm 0 W/m2
06:59 2.3 °C 1.2 °C 1031.4 hPa NE 2.4 km/h 5.6 km/h 92.4% 0.0 mm 0 W/m2
07:04 2.1 °C 1 °C 1031.5 hPa NE 0.6 km/h 4.8 km/h 92.4% 0.0 mm 0 W/m2
07:09 1.8 °C 0.7 °C 1031.5 hPa Calm   3.2 km/h 92.5% 0.0 mm 0 W/m2
07:14 1.7 °C 0.7 °C 1031.6 hPa Calm   1.9 km/h 93% 0.0 mm 0 W/m2
07:19 1.6 °C 0.6 °C 1031.6 hPa Calm   1.6 km/h 93% 0.0 mm 0 W/m2
07:24 1.5 °C 0.5 °C 1031.7 hPa NE 0.3 km/h 1.9 km/h 93% 0.0 mm 0 W/m2
07:29 1.3 °C 0.3 °C 1031.7 hPa ESE 0.9 km/h 3.7 km/h 93% 0.0 mm 5 W/m2
07:34 1.3 °C 0.3 °C 1031.8 hPa ESE 0.3 km/h 3.2 km/h 93% 0.0 mm 9 W/m2
07:39 1.3 °C 0.3 °C 1031.8 hPa SE 0.1 km/h 1.9 km/h 93.2% 0.0 mm 12 W/m2
07:44 1.3 °C 0.3 °C 1031.8 hPa Calm   1.6 km/h 93.3% 0.0 mm 14 W/m2
07:49 1.2 °C 0.3 °C 1031.9 hPa Calm     93.8% 0.0 mm 18 W/m2
07:54 1.2 °C 0.4 °C 1031.9 hPa Calm     93.9% 0.0 mm 19 W/m2
07:59 1.2 °C 0.4 °C 1031.9 hPa Calm   1.9 km/h 93.8% 0.0 mm 23 W/m2
08:04 1.1 °C 0.2 °C 1031.9 hPa Calm   1.6 km/h 93.5% 0.0 mm 37 W/m2
08:09 1.2 °C 0.3 °C 1031.9 hPa Calm     94% 0.0 mm 54 W/m2
08:14 1.3 °C 0.5 °C 1032.0 hPa Calm     94% 0.0 mm 67 W/m2
08:19 1.5 °C 0.6 °C 1032.1 hPa Calm     94% 0.0 mm 76 W/m2
08:24 1.8 °C 0.9 °C 1032.2 hPa Calm     94% 0.0 mm 91 W/m2
08:29 2.1 °C 1.2 °C 1032.3 hPa SE 0.4 km/h 1.9 km/h 94% 0.0 mm 105 W/m2
08:34 2.5 °C 1.6 °C 1032.4 hPa SE 0.7 km/h 1.9 km/h 93.6% 0.0 mm 120 W/m2
08:39 3 °C 1.9 °C 1032.5 hPa SE 0.3 km/h 1.9 km/h 92.6% 0.0 mm 132 W/m2
08:44 3.4 °C 2.1 °C 1032.6 hPa ESE 0.5 km/h 1.9 km/h 91.2% 0.0 mm 144 W/m2
08:49 3.7 °C 2.2 °C 1032.7 hPa NNW 1.4 km/h 3.7 km/h 90% 0.0 mm 162 W/m2
08:54 3.9 °C 2.3 °C 1032.7 hPa NW 1.2 km/h 3.7 km/h 89.4% 0.0 mm 176 W/m2
08:59 4.1 °C 2.5 °C 1032.7 hPa NNW 1.7 km/h 3.7 km/h 89% 0.0 mm 192 W/m2
09:04 4.5 °C 2.7 °C 1032.7 hPa NNW 1.4 km/h 3.7 km/h 88.4% 0.0 mm 204 W/m2
09:09 4.7 °C 2.9 °C 1032.8 hPa North 1.1 km/h 3.7 km/h 87.9% 0.0 mm 214 W/m2
09:14 5.2 °C 3.1 °C 1032.8 hPa NNE 1.7 km/h 5.6 km/h 86.1% 0.0 mm 227 W/m2
09:19 5.8 °C 3.1 °C 1032.8 hPa NNE 3.9 km/h 6.4 km/h 82.8% 0.0 mm 239 W/m2
09:24 6.2 °C 3 °C 1032.9 hPa NE 3.6 km/h 6.4 km/h 80.2% 0.0 mm 251 W/m2
09:29 6.3 °C 3 °C 1033.0 hPa NE 2.1 km/h 6.4 km/h 79.7% 0.0 mm 265 W/m2
09:34 6.3 °C 3 °C 1033.0 hPa North 2.1 km/h 5.6 km/h 79.3% 0.0 mm 276 W/m2
09:39 6.6 °C 3 °C 1033.0 hPa North 3.1 km/h 5.6 km/h 78.1% 0.0 mm 290 W/m2
09:44 6.9 °C 3.1 °C 1033.0 hPa North 2.6 km/h 5.6 km/h 76.8% 0.0 mm 302 W/m2
09:49 7.3 °C 3.3 °C 1033.0 hPa NNE 2.3 km/h 5.6 km/h 75.7% 0.0 mm 315 W/m2
09:54 7.6 °C 3.7 °C 1033.0 hPa NNE 3.2 km/h 6.4 km/h 76.1% 0.0 mm 327 W/m2
09:59 8.1 °C 3.3 °C 1033.1 hPa NE 5 km/h 11.3 km/h 71.7% 0.0 mm 339 W/m2
10:04 8.3 °C 3.3 °C 1033.0 hPa NE 5.2 km/h 11.3 km/h 70.7% 0.0 mm 350 W/m2
10:09 8.3 °C 2.9 °C 1033.0 hPa NE 5.5 km/h 11.3 km/h 68.4% 0.0 mm 360 W/m2
10:14 8.5 °C 2.9 °C 1033.0 hPa ENE 7.1 km/h 13 km/h 67.8% 0.0 mm 373 W/m2
10:19 8.8 °C 2.8 °C 1033.1 hPa ENE 7.9 km/h 14.8 km/h 65.9% 0.0 mm 381 W/m2
10:24 8.9 °C 2.5 °C 1033.1 hPa ENE 8.7 km/h 14.8 km/h 64.4% 0.0 mm 392 W/m2
10:29 9.1 °C 2 °C 1033.1 hPa ENE 10.8 km/h 19.3 km/h 61.3% 0.0 mm 401 W/m2
10:34 9.3 °C 1.8 °C 1033.1 hPa ENE 9.9 km/h 19.3 km/h 59.2% 0.0 mm 410 W/m2
10:39 9.5 °C 1.6 °C 1033.2 hPa ENE 11.3 km/h 18.5 km/h 57.9% 0.0 mm 418 W/m2
10:44 9.6 °C 1.3 °C 1033.2 hPa ENE 12.3 km/h 19.3 km/h 56.1% 0.0 mm 424 W/m2
10:49 9.6 °C 1.3 °C 1033.2 hPa East 9.5 km/h 19.3 km/h 56.3% 0.0 mm 434 W/m2
10:54 9.8 °C 1.2 °C 1033.2 hPa ENE 8.6 km/h 16.1 km/h 55% 0.0 mm 443 W/m2
10:59 9.8 °C 0.7 °C 1033.2 hPa East 9 km/h 18.5 km/h 53.1% 0.0 mm 450 W/m2
11:04 10 °C 0.3 °C 1033.2 hPa ENE 11.6 km/h 19.3 km/h 51.1% 0.0 mm 457 W/m2
11:09 10.1 °C 0.7 °C 1033.2 hPa East 9.3 km/h 19.3 km/h 52.2% 0.0 mm 461 W/m2
11:14 10.2 °C 0 °C 1033.2 hPa ESE 12.3 km/h 19.3 km/h 49.4% 0.0 mm 469 W/m2
11:19 10.3 °C 0 °C 1033.2 hPa East 11 km/h 19.3 km/h 48.8% 0.0 mm 476 W/m2
11:24 10.5 °C 0.1 °C 1033.2 hPa East 9.4 km/h 16.1 km/h 48.6% 0.0 mm 482 W/m2
11:29 10.6 °C 0.1 °C 1033.1 hPa East 8.8 km/h 18.5 km/h 48.4% 0.0 mm 485 W/m2
11:34 10.8 °C 0.2 °C 1033.1 hPa ENE 10.1 km/h 19.3 km/h 47.9% 0.0 mm 492 W/m2
11:39 11.1 °C 0 °C 1033.0 hPa NE 11.1 km/h 24.1 km/h 46.3% 0.0 mm 497 W/m2
11:44 11.1 °C -1.8 °C 1033.0 hPa ENE 18.5 km/h 29.6 km/h 40.5% 0.0 mm 499 W/m2
11:49 11.1 °C -1.9 °C 1033.0 hPa ENE 17 km/h 29 km/h 40.3% 0.0 mm 503 W/m2
11:54 11.1 °C -2.1 °C 1033.0 hPa East 14.5 km/h 24.1 km/h 40% 0.0 mm 512 W/m2
11:59 11.1 °C -1.8 °C 1032.9 hPa East 13.7 km/h 24.1 km/h 40.5% 0.0 mm 512 W/m2
12:04 11.1 °C -1.9 °C 1032.8 hPa East 14.1 km/h 24.1 km/h 40.1% 0.0 mm 513 W/m2
12:09 11.2 °C -1.9 °C 1032.8 hPa ENE 12.9 km/h 24.1 km/h 40% 0.0 mm 517 W/m2
12:14 11.3 °C -2.6 °C 1032.7 hPa ENE 17.1 km/h 25.9 km/h 38% 0.0 mm 520 W/m2
12:19 11.4 °C -2.2 °C 1032.7 hPa East 14.8 km/h 25.7 km/h 38.7% 0.0 mm 524 W/m2
12:24 11.5 °C -2 °C 1032.5 hPa ENE 17.1 km/h 24.1 km/h 38.9% 0.0 mm 522 W/m2
12:29 11.5 °C -2.2 °C 1032.5 hPa ENE 13.7 km/h 24.1 km/h 38.4% 0.0 mm 527 W/m2
12:34 11.5 °C -2.6 °C 1032.4 hPa East 17.6 km/h 32.2 km/h 37.3% 0.0 mm 527 W/m2
12:39 11.6 °C -3.4 °C 1032.3 hPa East 16.6 km/h 25.9 km/h 34.9% 0.0 mm 529 W/m2
12:44 11.5 °C -3.8 °C 1032.2 hPa East 18.5 km/h 27.8 km/h 34.1% 0.0 mm 529 W/m2
12:49 11.6 °C -4 °C 1032.1 hPa East 16.1 km/h 27.8 km/h 33.4% 0.0 mm 529 W/m2
12:54 11.7 °C -4 °C 1032.0 hPa East 15.8 km/h 27.4 km/h 33.4% 0.0 mm 529 W/m2
12:59 11.7 °C -4 °C 1031.9 hPa ESE 18.1 km/h 27.8 km/h 33.3% 0.0 mm 527 W/m2
13:04 11.8 °C -3.7 °C 1031.9 hPa East 16.8 km/h 29 km/h 33.8% 0.0 mm 527 W/m2
13:09 11.8 °C -3.8 °C 1031.8 hPa East 16.2 km/h 29 km/h 33.4% 0.0 mm 524 W/m2
13:14 11.6 °C -4.1 °C 1031.8 hPa ESE 13.8 km/h 25.7 km/h 33.1% 0.0 mm 524 W/m2
13:19 11.8 °C -3.7 °C 1031.7 hPa East 14.7 km/h 24.1 km/h 33.8% 0.0 mm 520 W/m2
13:24 12.1 °C -3.5 °C 1031.7 hPa ENE 10.7 km/h 24.1 km/h 33.7% 0.0 mm 519 W/m2
13:29 12.2 °C -3.5 °C 1031.6 hPa East 13.4 km/h 27.8 km/h 33.5% 0.0 mm 513 W/m2
13:34 11.8 °C -4 °C 1031.5 hPa ESE 11.4 km/h 27.4 km/h 32.9% 0.0 mm 510 W/m2
13:39 12 °C -4 °C 1031.4 hPa East 12.9 km/h 22.5 km/h 32.6% 0.0 mm 506 W/m2
13:44 12.1 °C -4 °C 1031.4 hPa East 12.6 km/h 24.1 km/h 32.2% 0.0 mm 504 W/m2
13:49 11.8 °C -4.2 °C 1031.4 hPa ESE 14.7 km/h 24.1 km/h 32.4% 0.0 mm 497 W/m2
13:54 12 °C -3.8 °C 1031.3 hPa East 13.2 km/h 24.1 km/h 33.1% 0.0 mm 492 W/m2
13:59 11.9 °C -3.9 °C 1031.2 hPa East 13.3 km/h 22.5 km/h 32.9% 0.0 mm 485 W/m2
14:04 12.1 °C -3.6 °C 1031.2 hPa East 11.2 km/h 20.4 km/h 33.4% 0.0 mm 482 W/m2
14:09 12.2 °C -3.7 °C 1031.0 hPa East 15.6 km/h 31.5 km/h 32.9% 0.0 mm 473 W/m2
14:14 12.1 °C -3.7 °C 1031.0 hPa East 13.3 km/h 20.4 km/h 33% 0.0 mm 468 W/m2
14:19 12.1 °C -3.5 °C 1031.0 hPa East 12.2 km/h 24.1 km/h 33.6% 0.0 mm 457 W/m2
14:24 11.9 °C -3.7 °C 1031.0 hPa East 8.9 km/h 17.7 km/h 33.5% 0.0 mm 454 W/m2
14:29 12.1 °C -3.5 °C 1030.9 hPa ESE 12.3 km/h 18.5 km/h 33.7% 0.0 mm 445 W/m2
14:34 12 °C -3.8 °C 1030.8 hPa East 10.9 km/h 19.3 km/h 33.1% 0.0 mm 438 W/m2
14:39 12.3 °C -3.2 °C 1030.8 hPa ENE 11.5 km/h 24.1 km/h 34% 0.0 mm 429 W/m2
14:44 12.3 °C -3.6 °C 1030.7 hPa East 16 km/h 24.1 km/h 32.7% 0.0 mm 422 W/m2
14:49 12.1 °C -3.9 °C 1030.6 hPa East 16.7 km/h 27.8 km/h 32.4% 0.0 mm 411 W/m2
14:54 12.1 °C -3.8 °C 1030.5 hPa East 15.2 km/h 27.8 km/h 32.7% 0.0 mm 403 W/m2
14:59 12 °C -3.6 °C 1030.5 hPa East 15.3 km/h 25.9 km/h 33.5% 0.0 mm 394 W/m2
15:04 11.9 °C -3.5 °C 1030.5 hPa East 12 km/h 25.7 km/h 33.9% 0.0 mm 385 W/m2
15:09 12 °C -3.5 °C 1030.4 hPa ESE 11 km/h 24.1 km/h 33.7% 0.0 mm 376 W/m2
15:14 12 °C -3.5 °C 1030.4 hPa ESE 16.7 km/h 25.9 km/h 33.7% 0.0 mm 366 W/m2
15:19 12 °C -3.7 °C 1030.4 hPa East 14.8 km/h 25.7 km/h 33.4% 0.0 mm 355 W/m2
15:24 12 °C -3.7 °C 1030.4 hPa ESE 14.1 km/h 24.1 km/h 33.4% 0.0 mm 343 W/m2
15:29 11.9 °C -3.7 °C 1030.3 hPa East 15 km/h 27.8 km/h 33.5% 0.0 mm 330 W/m2
15:34 11.9 °C -3.8 °C 1030.3 hPa East 12.6 km/h 27.4 km/h 33.4% 0.0 mm 323 W/m2
15:39 12 °C -3.5 °C 1030.2 hPa ENE 8.1 km/h 22.5 km/h 33.7% 0.0 mm 309 W/m2
15:44 12 °C -3.7 °C 1030.2 hPa ENE 11.8 km/h 18.5 km/h 33.2% 0.0 mm 297 W/m2
15:49 12 °C -3.8 °C 1030.2 hPa East 11.4 km/h 19.3 km/h 33% 0.0 mm 285 W/m2
15:54 12 °C -3.5 °C 1030.1 hPa East 8.4 km/h 19.3 km/h 33.7% 0.0 mm 272 W/m2
15:59 12 °C -3 °C 1030.1 hPa East 9.8 km/h 14.8 km/h 35% 0.0 mm 260 W/m2
16:04 11.9 °C -2.9 °C 1030.0 hPa ESE 12.6 km/h 19.3 km/h 35.5% 0.0 mm 248 W/m2
16:09 11.8 °C -2.9 °C 1030.0 hPa East 12.9 km/h 20.9 km/h 35.6% 0.0 mm 236 W/m2
16:14 11.8 °C -2.9 °C 1030.0 hPa East 12.2 km/h 20.9 km/h 36% 0.0 mm 220 W/m2
16:19 11.6 °C -2.8 °C 1030.0 hPa East 11 km/h 19.3 km/h 36.5% 0.0 mm 202 W/m2
16:24 11.7 °C -2.7 °C 1029.9 hPa East 11.9 km/h 19.3 km/h 36.7% 0.0 mm 171 W/m2
16:29 11.6 °C -2.8 °C 1029.9 hPa East 13.8 km/h 22.5 km/h 36.6% 0.0 mm 160 W/m2
16:34 11.4 °C -2.6 °C 1029.8 hPa East 12.6 km/h 22.5 km/h 37.5% 0.0 mm 49 W/m2
16:39 11.3 °C -2.6 °C 1029.8 hPa East 8.7 km/h 20.9 km/h 37.7% 0.0 mm 44 W/m2
16:44 11.2 °C -2.6 °C 1029.8 hPa East 8.8 km/h 16.1 km/h 38% 0.0 mm 69 W/m2
16:49 11.1 °C -2.6 °C 1029.7 hPa East 9.6 km/h 20.9 km/h 38.4% 0.0 mm 91 W/m2
16:54 11 °C -2.6 °C 1029.7 hPa East 10.3 km/h 18.5 km/h 38.5% 0.0 mm 91 W/m2
16:59 10.9 °C -2.6 °C 1029.7 hPa East 7.7 km/h 19.3 km/h 39% 0.0 mm 70 W/m2
17:04 10.8 °C -2.5 °C 1029.7 hPa ESE 6.6 km/h 14.5 km/h 39.4% 0.0 mm 49 W/m2
17:09 10.7 °C -2.3 °C 1029.7 hPa ESE 8.5 km/h 14.8 km/h 40.4% 0.0 mm 42 W/m2
17:14 10.5 °C -2 °C 1029.8 hPa SE 5.9 km/h 14.5 km/h 41.8% 0.0 mm 35 W/m2
17:19 10.3 °C -2 °C 1029.8 hPa SE 4.2 km/h 11.3 km/h 42.3% 0.0 mm 21 W/m2
17:24 10 °C -1.9 °C 1029.8 hPa SE 4.7 km/h 6.4 km/h 43.2% 0.0 mm 14 W/m2
17:29 9.8 °C -1.9 °C 1029.8 hPa ESE 4.2 km/h 8 km/h 43.8% 0.0 mm 9 W/m2
17:34 9.5 °C -1.9 °C 1029.9 hPa SE 2.9 km/h 8 km/h 45% 0.0 mm 5 W/m2
17:39 9.3 °C -1.8 °C 1030.0 hPa SE 2.3 km/h 5.6 km/h 46.1% 0.0 mm 0 W/m2
17:44 9 °C -1.8 °C 1030.0 hPa SE 2.3 km/h 4.8 km/h 46.9% 0.0 mm 0 W/m2
17:49 8.7 °C -1.7 °C 1030.0 hPa SE 2.2 km/h 4.8 km/h 48% 0.0 mm 0 W/m2
17:54 8.4 °C -1.7 °C 1030.1 hPa SE 2.4 km/h 5.6 km/h 49.1% 0.0 mm 0 W/m2
17:59 7.9 °C -1.3 °C 1030.1 hPa SE 2.2 km/h 5.6 km/h 52.4% 0.0 mm 0 W/m2
18:04 7.6 °C -1.3 °C 1030.2 hPa SE 2.2 km/h 5.6 km/h 53.4% 0.0 mm 0 W/m2
18:09 7.5 °C -1.5 °C 1030.2 hPa SE 2.4 km/h 5.6 km/h 52.7% 0.0 mm 0 W/m2
18:14 7.8 °C -1.7 °C 1030.2 hPa ESE 3.2 km/h 5.6 km/h 51.2% 0.0 mm 0 W/m2
18:19 7.9 °C -1.6 °C 1030.2 hPa ESE 3 km/h 5.6 km/h 51% 0.0 mm 0 W/m2
18:24 7.7 °C -1.5 °C 1030.2 hPa ESE 2.7 km/h 4.8 km/h 52% 0.0 mm 0 W/m2
18:29 7.3 °C -1.5 °C 1030.2 hPa ESE 1.5 km/h 5.6 km/h 53.5% 0.0 mm 0 W/m2
18:34 7.2 °C -1.5 °C 1030.3 hPa ESE 3.1 km/h 6.4 km/h 54.2% 0.0 mm 0 W/m2
18:39 6.9 °C -1.2 °C 1030.3 hPa ESE 3.1 km/h 6.4 km/h 56.3% 0.0 mm 0 W/m2
18:44 6.7 °C -1.1 °C 1030.3 hPa ESE 2.4 km/h 5.6 km/h 57.5% 0.0 mm 0 W/m2
18:49 6.5 °C -1.4 °C 1030.3 hPa ESE 0.8 km/h 4.8 km/h 57.2% 0.0 mm 0 W/m2
18:54 6.3 °C -1.4 °C 1030.4 hPa ESE 1.6 km/h 5.6 km/h 58.2% 0.0 mm 0 W/m2
18:59 6.1 °C -1.3 °C 1030.4 hPa ESE 0.2 km/h 4.8 km/h 59.1% 0.0 mm 0 W/m2
19:04 5.9 °C -1.3 °C 1030.5 hPa Calm   1.6 km/h 59.8% 0.0 mm 0 W/m2
19:09 5.8 °C -1.4 °C 1030.5 hPa Calm     59.9% 0.0 mm 0 W/m2
19:14 5.8 °C -1.5 °C 1030.6 hPa Calm     59.1% 0.0 mm 0 W/m2
19:19 5.7 °C -1.4 °C 1030.6 hPa Calm     60.6% 0.0 mm 0 W/m2
19:24 5.5 °C -1.4 °C 1030.6 hPa Calm     61.3% 0.0 mm 0 W/m2
19:29 5.3 °C -1.2 °C 1030.6 hPa Calm     62.8% 0.0 mm 0 W/m2
19:34 5.1 °C -1.4 °C 1030.6 hPa Calm     63% 0.0 mm 0 W/m2
19:39 4.8 °C -1.5 °C 1030.6 hPa Calm     63.4% 0.0 mm 0 W/m2
19:44 4.6 °C -1.5 °C 1030.6 hPa Calm     64.8% 0.0 mm 0 W/m2
19:49 4.5 °C -1.4 °C 1030.6 hPa Calm     65.9% 0.0 mm 0 W/m2
19:54 4.4 °C -1.3 °C 1030.6 hPa Calm     66% 0.0 mm 0 W/m2
19:59 4.3 °C -1.4 °C 1030.6 hPa Calm     66.6% 0.0 mm 0 W/m2
20:04 4.1 °C -1.4 °C 1030.6 hPa Calm     67.4% 0.0 mm 0 W/m2
20:09 4 °C -1.4 °C 1030.6 hPa Calm     68% 0.0 mm 0 W/m2
20:14 4 °C -1.4 °C 1030.6 hPa Calm     68% 0.0 mm 0 W/m2
20:19 4.1 °C -1.3 °C 1030.6 hPa Calm     68% 0.0 mm 0 W/m2
20:24 4.2 °C -1.3 °C 1030.6 hPa Calm     67.3% 0.0 mm 0 W/m2
20:29 4.3 °C -1.4 °C 1030.5 hPa Calm     66% 0.0 mm 0 W/m2
20:34 4.3 °C -1.5 °C 1030.5 hPa Calm     66.3% 0.0 mm 0 W/m2
20:39 4.1 °C -1.4 °C 1030.6 hPa Calm     67.6% 0.0 mm 0 W/m2
20:44 3.8 °C -1.4 °C 1030.5 hPa Calm     68.5% 0.0 mm 0 W/m2
20:49 4.1 °C -1.5 °C 1030.6 hPa Calm     67.2% 0.0 mm 0 W/m2
20:54 4.2 °C -1.5 °C 1030.7 hPa Calm     66.2% 0.0 mm 0 W/m2
20:59 4.1 °C -1.5 °C 1030.7 hPa Calm     66.7% 0.0 mm 0 W/m2
21:04 3.9 °C -1.7 °C 1030.7 hPa Calm     66.8% 0.0 mm 0 W/m2
21:09 3.6 °C -1.6 °C 1030.7 hPa Calm     68.4% 0.0 mm 0 W/m2
21:14 3.4 °C -1.6 °C 1030.8 hPa Calm     70% 0.0 mm 0 W/m2
21:19 3.1 °C -1.7 °C 1030.8 hPa Calm     70.7% 0.0 mm 0 W/m2
21:24 2.8 °C -1.9 °C 1030.8 hPa Calm     71% 0.0 mm 0 W/m2
21:29 2.1 °C -2.5 °C 1030.9 hPa Calm     72% 0.0 mm 0 W/m2
21:34 1.8 °C -2.5 °C 1030.9 hPa NE 1.7 km/h 6.4 km/h 73.4% 0.0 mm 0 W/m2
21:39 2.2 °C -2 °C 1030.9 hPa NE 4.7 km/h 6.4 km/h 73.7% 0.0 mm 0 W/m2
21:44 3.1 °C -1.8 °C 1031.0 hPa NE 3.6 km/h 6.4 km/h 70.2% 0.0 mm 0 W/m2
21:49 3.4 °C -1.8 °C 1031.0 hPa ENE 2.8 km/h 6.4 km/h 69% 0.0 mm 0 W/m2
21:54 3.2 °C -1.9 °C 1030.9 hPa ENE 2.8 km/h 5.6 km/h 69.4% 0.0 mm 0 W/m2
21:59 3.1 °C -2 °C 1030.9 hPa ENE 2.2 km/h 5.6 km/h 69.6% 0.0 mm 0 W/m2
22:04 2.7 °C -2.2 °C 1030.9 hPa ENE 2.2 km/h 4.8 km/h 70.2% 0.0 mm 0 W/m2
22:09 2.3 °C -2.2 °C 1031.0 hPa ENE 2.9 km/h 3.7 km/h 71.9% 0.0 mm 0 W/m2
22:14 2.1 °C -2.2 °C 1031.0 hPa ENE 2.4 km/h 5.6 km/h 73.3% 0.0 mm 0 W/m2
22:19 2.1 °C -2.2 °C 1031.0 hPa ENE 0.5 km/h 4.8 km/h 73.6% 0.0 mm 0 W/m2
22:24 1.9 °C -2.3 °C 1031.0 hPa Calm   1.6 km/h 73.7% 0.0 mm 0 W/m2
22:29 1.8 °C -2.1 °C 1031.0 hPa Calm     75% 0.0 mm 0 W/m2
22:34 1.7 °C -2.2 °C 1031.0 hPa East 1.9 km/h 5.6 km/h 75.2% 0.0 mm 0 W/m2
22:39 1.7 °C -2.1 °C 1031.0 hPa ENE 2.3 km/h 5.6 km/h 76% 0.0 mm 0 W/m2
22:44 1.8 °C -2 °C 1030.9 hPa East 2.2 km/h 5.6 km/h 76% 0.0 mm 0 W/m2
22:49 1.6 °C -2.1 °C 1030.9 hPa ENE 3.3 km/h 5.6 km/h 76.4% 0.0 mm 0 W/m2
22:54 1.7 °C -2.2 °C 1030.9 hPa ENE 2.6 km/h 3.7 km/h 75.7% 0.0 mm 0 W/m2
22:59 1.8 °C -2.1 °C 1031.0 hPa ENE 2.4 km/h 3.7 km/h 75.6% 0.0 mm 0 W/m2
23:04 1.7 °C -2.1 °C 1031.0 hPa ENE 1.9 km/h 3.7 km/h 75.8% 0.0 mm 0 W/m2
23:09 1.6 °C -2.2 °C 1031.0 hPa ENE 3.2 km/h 5.6 km/h 76.3% 0.0 mm 0 W/m2
23:14 1.5 °C -2.1 °C 1030.9 hPa ENE 3.6 km/h 5.6 km/h 76.8% 0.0 mm 0 W/m2
23:19 1.5 °C -2.1 °C 1030.9 hPa ENE 4.2 km/h 6.4 km/h 76.9% 0.0 mm 0 W/m2
23:24 1.4 °C -2.2 °C 1030.9 hPa ENE 3.7 km/h 6.4 km/h 77% 0.0 mm 0 W/m2
23:29 1.8 °C -2.2 °C 1030.9 hPa ENE 4.1 km/h 6.4 km/h 75.1% 0.0 mm 0 W/m2
23:34 2.3 °C -2.3 °C 1030.8 hPa ENE 4 km/h 6.4 km/h 71.9% 0.0 mm 0 W/m2
23:39 2.7 °C -2.3 °C 1030.8 hPa ENE 3.9 km/h 8 km/h 70% 0.0 mm 0 W/m2
23:44 2.7 °C -2.4 °C 1030.8 hPa ENE 4.2 km/h 8 km/h 69.2% 0.0 mm 0 W/m2
23:49 2.8 °C -2.5 °C 1030.7 hPa NE 3 km/h 8 km/h 68.2% 0.0 mm 0 W/m2
23:54 2.4 °C -2.6 °C 1030.7 hPa NE 2.9 km/h 5.6 km/h 69.4% 0.0 mm 0 W/m2
23:59 2 °C -2.5 °C 1030.7 hPa NE 4.2 km/h 5.6 km/h 71.8% 0.0 mm 0 W/m2
Stazione Meteorologica MeteoMincio Rivalta s/M (MN)
Con i complimenti di Weather Underground - 4 mb


METEO PILLOLE
La più intensa nevicata in 24 ore
Silver Lake - Colorado
Tra il 14 e il 15 aprile 1921 caddero 193 cm di neve
C'è anche un altro dato, ma non è ufficiale, a Roccacaramanico (1050m) in Abruzzo - Italia, Il 17 dicembre 1961 caddero 340 cm di neve.

Do NOT follow this link or you will be banned from the site!